sensor_id;sensor_type;location;lat;lon;timestamp;pressure;altitude;pressure_sealevel;temperature;humidity
27712;BME280;2377;51.734;8.950;2022-12-18T00:01:25;98966.72;;;-6.10;77.43
27712;BME280;2377;51.734;8.950;2022-12-18T00:03:55;98975.94;;;-6.12;76.86
27712;BME280;2377;51.734;8.950;2022-12-18T00:06:24;98977.63;;;-6.12;77.22
27712;BME280;2377;51.734;8.950;2022-12-18T00:08:53;98976.03;;;-6.13;77.15
27712;BME280;2377;51.734;8.950;2022-12-18T00:11:24;98974.97;;;-6.09;78.41
27712;BME280;2377;51.734;8.950;2022-12-18T00:13:55;98974.19;;;-6.10;77.57
27712;BME280;2377;51.734;8.950;2022-12-18T00:16:26;98978.34;;;-6.10;77.68
27712;BME280;2377;51.734;8.950;2022-12-18T00:18:56;98984.19;;;-6.11;78.68
27712;BME280;2377;51.734;8.950;2022-12-18T00:21:23;98995.59;;;-6.07;78.60
27712;BME280;2377;51.734;8.950;2022-12-18T00:23:51;98985.59;;;-6.06;78.64
27712;BME280;2377;51.734;8.950;2022-12-18T00:26:22;98988.88;;;-6.05;78.18
27712;BME280;2377;51.734;8.950;2022-12-18T00:28:52;98990.50;;;-6.04;78.71
27712;BME280;2377;51.734;8.950;2022-12-18T00:33:59;98979.41;;;-5.99;78.68
27712;BME280;2377;51.734;8.950;2022-12-18T00:36:29;98980.22;;;-5.98;78.66
27712;BME280;2377;51.734;8.950;2022-12-18T00:38:58;98987.41;;;-5.93;79.38
27712;BME280;2377;51.734;8.950;2022-12-18T00:41:27;98993.38;;;-5.96;79.08
27712;BME280;2377;51.734;8.950;2022-12-18T00:44:12;99002.19;;;-5.90;79.02
27712;BME280;2377;51.734;8.950;2022-12-18T00:46:40;99003.69;;;-5.88;79.14
27712;BME280;2377;51.734;8.950;2022-12-18T00:49:08;98999.56;;;-5.87;79.03
27712;BME280;2377;51.734;8.950;2022-12-18T00:51:38;98997.06;;;-5.87;79.10
27712;BME280;2377;51.734;8.950;2022-12-18T00:54:06;98996.09;;;-5.85;78.87
27712;BME280;2377;51.734;8.950;2022-12-18T00:56:36;99001.88;;;-5.84;79.92
27712;BME280;2377;51.734;8.950;2022-12-18T00:59:04;98997.69;;;-5.84;79.68
27712;BME280;2377;51.734;8.950;2022-12-18T01:01:33;98997.56;;;-5.81;79.58
27712;BME280;2377;51.734;8.950;2022-12-18T01:04:02;99002.44;;;-5.79;79.53
27712;BME280;2377;51.734;8.950;2022-12-18T01:06:30;99007.34;;;-5.78;78.82
27712;BME280;2377;51.734;8.950;2022-12-18T01:08:57;99008.94;;;-5.77;78.96
27712;BME280;2377;51.734;8.950;2022-12-18T01:11:24;99006.38;;;-5.75;79.87
27712;BME280;2377;51.734;8.950;2022-12-18T01:13:52;99007.19;;;-5.75;79.00
27712;BME280;2377;51.734;8.950;2022-12-18T01:16:21;99001.47;;;-5.77;78.90
27712;BME280;2377;51.734;8.950;2022-12-18T01:18:52;99000.75;;;-5.79;78.81
27712;BME280;2377;51.734;8.950;2022-12-18T01:21:22;99000.03;;;-5.81;79.02
27712;BME280;2377;51.734;8.950;2022-12-18T01:23:52;98998.41;;;-5.82;78.88
27712;BME280;2377;51.734;8.950;2022-12-18T01:26:20;98995.06;;;-5.81;78.80
27712;BME280;2377;51.734;8.950;2022-12-18T01:28:47;99004.06;;;-5.78;79.70
27712;BME280;2377;51.734;8.950;2022-12-18T01:31:18;99012.00;;;-5.71;80.41
27712;BME280;2377;51.734;8.950;2022-12-18T01:33:51;99003.66;;;-5.70;79.93
27712;BME280;2377;51.734;8.950;2022-12-18T01:36:21;98996.91;;;-5.68;80.42
27712;BME280;2377;51.734;8.950;2022-12-18T01:38:51;98996.19;;;-5.70;80.60
27712;BME280;2377;51.734;8.950;2022-12-18T01:41:23;99000.28;;;-5.69;80.54
27712;BME280;2377;51.734;8.950;2022-12-18T01:43:53;98996.25;;;-5.72;79.60
27712;BME280;2377;51.734;8.950;2022-12-18T01:46:26;99000.59;;;-5.76;79.82
27712;BME280;2377;51.734;8.950;2022-12-18T01:48:59;98991.44;;;-5.75;80.94
27712;BME280;2377;51.734;8.950;2022-12-18T01:51:27;98983.91;;;-5.74;80.23
27712;BME280;2377;51.734;8.950;2022-12-18T01:53:56;98984.72;;;-5.73;80.19
27712;BME280;2377;51.734;8.950;2022-12-18T01:56:23;98989.59;;;-5.71;81.37
27712;BME280;2377;51.734;8.950;2022-12-18T01:58:55;98996.19;;;-5.70;80.30
27712;BME280;2377;51.734;8.950;2022-12-18T02:01:25;98995.28;;;-5.69;80.47
27712;BME280;2377;51.734;8.950;2022-12-18T02:03:54;98984.47;;;-5.68;80.46
27712;BME280;2377;51.734;8.950;2022-12-18T02:06:29;98990.25;;;-5.68;80.33
27712;BME280;2377;51.734;8.950;2022-12-18T02:09:12;99004.28;;;-5.67;80.39
27712;BME280;2377;51.734;8.950;2022-12-18T02:11:50;99000.13;;;-5.66;81.17
27712;BME280;2377;51.734;8.950;2022-12-18T02:14:28;99005.56;;;-5.60;82.15
27712;BME280;2377;51.734;8.950;2022-12-18T02:17:11;98999.66;;;-5.57;81.33
27712;BME280;2377;51.734;8.950;2022-12-18T02:19:58;99003.19;;;-5.61;81.21
27712;BME280;2377;51.734;8.950;2022-12-18T02:22:44;98998.03;;;-5.58;81.74
27712;BME280;2377;51.734;8.950;2022-12-18T02:25:34;98984.53;;;-5.54;81.11
27712;BME280;2377;51.734;8.950;2022-12-18T02:28:12;98982.13;;;-5.56;80.49
27712;BME280;2377;51.734;8.950;2022-12-18T02:30:42;98989.03;;;-5.61;80.29
27712;BME280;2377;51.734;8.950;2022-12-18T02:33:11;98987.50;;;-5.63;80.32
27712;BME280;2377;51.734;8.950;2022-12-18T02:35:42;98985.19;;;-5.66;81.08
27712;BME280;2377;51.734;8.950;2022-12-18T02:38:13;98986.78;;;-5.65;81.36
27712;BME280;2377;51.734;8.950;2022-12-18T02:40:43;98988.41;;;-5.64;80.67
27712;BME280;2377;51.734;8.950;2022-12-18T02:43:15;98980.84;;;-5.63;80.83
27712;BME280;2377;51.734;8.950;2022-12-18T02:45:48;98984.84;;;-5.60;81.27
27712;BME280;2377;51.734;8.950;2022-12-18T02:48:19;98974.91;;;-5.60;80.80
27712;BME280;2377;51.734;8.950;2022-12-18T02:50:59;98976.75;;;-5.64;81.56
27712;BME280;2377;51.734;8.950;2022-12-18T02:53:38;98970.09;;;-5.63;81.39
27712;BME280;2377;51.734;8.950;2022-12-18T02:56:15;98972.34;;;-5.59;81.79
27712;BME280;2377;51.734;8.950;2022-12-18T02:58:54;98964.94;;;-5.60;81.66
27712;BME280;2377;51.734;8.950;2022-12-18T03:01:34;98963.16;;;-5.58;81.44
27712;BME280;2377;51.734;8.950;2022-12-18T03:04:09;98963.09;;;-5.57;81.97
27712;BME280;2377;51.734;8.950;2022-12-18T03:06:42;98962.19;;;-5.56;82.18
27712;BME280;2377;51.734;8.950;2022-12-18T03:09:17;98959.56;;;-5.53;81.72
27712;BME280;2377;51.734;8.950;2022-12-18T03:11:53;98962.06;;;-5.53;82.57
27712;BME280;2377;51.734;8.950;2022-12-18T03:14:43;98984.13;;;-5.46;82.54
27712;BME280;2377;51.734;8.950;2022-12-18T03:17:17;98985.56;;;-5.42;82.17
27712;BME280;2377;51.734;8.950;2022-12-18T03:19:47;98983.88;;;-5.42;82.28
27712;BME280;2377;51.734;8.950;2022-12-18T03:22:16;98982.28;;;-5.43;82.40
27712;BME280;2377;51.734;8.950;2022-12-18T03:24:48;98980.53;;;-5.41;81.88
27712;BME280;2377;51.734;8.950;2022-12-18T03:27:20;98987.09;;;-5.40;82.06
27712;BME280;2377;51.734;8.950;2022-12-18T03:29:56;98987.28;;;-5.43;81.50
27712;BME280;2377;51.734;8.950;2022-12-18T03:32:39;98985.03;;;-5.47;81.09
27712;BME280;2377;51.734;8.950;2022-12-18T03:35:15;98979.38;;;-5.51;81.55
27712;BME280;2377;51.734;8.950;2022-12-18T03:37:43;98979.56;;;-5.54;81.03
27712;BME280;2377;51.734;8.950;2022-12-18T03:40:11;98978.75;;;-5.55;81.67
27712;BME280;2377;51.734;8.950;2022-12-18T03:42:48;98989.53;;;-5.54;80.78
27712;BME280;2377;51.734;8.950;2022-12-18T03:45:26;98985.59;;;-5.58;81.37
27712;BME280;2377;51.734;8.950;2022-12-18T03:48:01;98987.44;;;-5.62;81.44
27712;BME280;2377;51.734;8.950;2022-12-18T03:50:39;98990.72;;;-5.61;81.45
27712;BME280;2377;51.734;8.950;2022-12-18T03:53:23;98997.47;;;-5.63;81.84
27712;BME280;2377;51.734;8.950;2022-12-18T03:55:53;98991.59;;;-5.62;81.64
27712;BME280;2377;51.734;8.950;2022-12-18T03:58:25;98994.09;;;-5.62;81.99
27712;BME280;2377;51.734;8.950;2022-12-18T04:00:59;98999.97;;;-5.63;81.42
27712;BME280;2377;51.734;8.950;2022-12-18T04:03:31;98995.88;;;-5.64;81.12
27712;BME280;2377;51.734;8.950;2022-12-18T04:06:00;98990.06;;;-5.65;81.78
27712;BME280;2377;51.734;8.950;2022-12-18T04:08:29;98985.81;;;-5.63;81.66
27712;BME280;2377;51.734;8.950;2022-12-18T04:10:56;98987.50;;;-5.63;82.08
27712;BME280;2377;51.734;8.950;2022-12-18T04:13:28;98996.56;;;-5.62;82.14
27712;BME280;2377;51.734;8.950;2022-12-18T04:15:56;99000.53;;;-5.58;81.88
27712;BME280;2377;51.734;8.950;2022-12-18T04:18:23;98991.47;;;-5.59;82.70
27712;BME280;2377;51.734;8.950;2022-12-18T04:20:51;98992.97;;;-5.57;82.19
27712;BME280;2377;51.734;8.950;2022-12-18T04:23:18;98979.72;;;-5.57;81.96
27712;BME280;2377;51.734;8.950;2022-12-18T04:25:47;98971.38;;;-5.56;82.49
27712;BME280;2377;51.734;8.950;2022-12-18T04:28:14;98972.88;;;-5.54;83.04
27712;BME280;2377;51.734;8.950;2022-12-18T04:30:41;98971.69;;;-5.46;83.28
27712;BME280;2377;51.734;8.950;2022-12-18T04:33:11;98974.72;;;-5.41;83.65
27712;BME280;2377;51.734;8.950;2022-12-18T04:35:39;98981.94;;;-5.37;84.13
27712;BME280;2377;51.734;8.950;2022-12-18T04:38:07;98982.50;;;-5.32;83.69
27712;BME280;2377;51.734;8.950;2022-12-18T04:40:35;98980.91;;;-5.33;83.65
27712;BME280;2377;51.734;8.950;2022-12-18T04:43:02;98989.03;;;-5.29;83.12
27712;BME280;2377;51.734;8.950;2022-12-18T04:45:30;98986.38;;;-5.26;83.63
27712;BME280;2377;51.734;8.950;2022-12-18T04:47:57;98996.88;;;-5.21;83.78
27712;BME280;2377;51.734;8.950;2022-12-18T04:50:27;98989.34;;;-5.19;83.67
27712;BME280;2377;51.734;8.950;2022-12-18T04:52:54;98995.66;;;-5.14;84.36
27712;BME280;2377;51.734;8.950;2022-12-18T04:55:21;98998.88;;;-5.12;83.25
27712;BME280;2377;51.734;8.950;2022-12-18T04:57:49;99005.56;;;-5.12;84.42
27712;BME280;2377;51.734;8.950;2022-12-18T05:00:16;99008.41;;;-5.04;84.22
27712;BME280;2377;51.734;8.950;2022-12-18T05:02:43;99005.06;;;-5.03;83.61
27712;BME280;2377;51.734;8.950;2022-12-18T05:05:11;99000.78;;;-5.01;83.18
27712;BME280;2377;51.734;8.950;2022-12-18T05:07:39;98994.84;;;-4.98;83.02
27712;BME280;2377;51.734;8.950;2022-12-18T05:10:08;99001.41;;;-4.97;83.67
27712;BME280;2377;51.734;8.950;2022-12-18T05:12:35;99002.13;;;-4.95;83.35
27712;BME280;2377;51.734;8.950;2022-12-18T05:15:23;99001.34;;;-4.96;83.21
27712;BME280;2377;51.734;8.950;2022-12-18T05:17:50;99004.69;;;-4.97;83.06
27712;BME280;2377;51.734;8.950;2022-12-18T05:20:17;99001.50;;;-4.99;83.27
27712;BME280;2377;51.734;8.950;2022-12-18T05:22:46;98999.09;;;-5.00;84.05
27712;BME280;2377;51.734;8.950;2022-12-18T05:25:14;98983.00;;;-4.95;83.46
27712;BME280;2377;51.734;8.950;2022-12-18T05:27:42;98984.63;;;-4.94;83.44
27712;BME280;2377;51.734;8.950;2022-12-18T05:30:10;98987.34;;;-4.98;83.09
27712;BME280;2377;51.734;8.950;2022-12-18T05:32:38;98981.22;;;-4.93;83.25
27712;BME280;2377;51.734;8.950;2022-12-18T05:35:11;98980.31;;;-4.92;83.53
27712;BME280;2377;51.734;8.950;2022-12-18T05:37:38;98974.47;;;-4.91;83.52
27712;BME280;2377;51.734;8.950;2022-12-18T05:40:09;98974.09;;;-4.84;83.23
27712;BME280;2377;51.734;8.950;2022-12-18T05:42:37;98984.00;;;-4.83;83.38
27712;BME280;2377;51.734;8.950;2022-12-18T05:45:06;98981.50;;;-4.83;82.67
27712;BME280;2377;51.734;8.950;2022-12-18T05:47:33;98988.13;;;-4.82;83.16
27712;BME280;2377;51.734;8.950;2022-12-18T05:50:00;99002.25;;;-4.82;82.94
27712;BME280;2377;51.734;8.950;2022-12-18T05:52:27;98996.66;;;-4.86;82.56
27712;BME280;2377;51.734;8.950;2022-12-18T05:54:54;99002.59;;;-4.89;82.93
27712;BME280;2377;51.734;8.950;2022-12-18T05:57:23;99006.69;;;-4.88;82.67
27712;BME280;2377;51.734;8.950;2022-12-18T05:59:50;99000.00;;;-4.87;82.93
27712;BME280;2377;51.734;8.950;2022-12-18T06:02:17;99004.19;;;-4.88;82.69
27712;BME280;2377;51.734;8.950;2022-12-18T06:04:47;99003.66;;;-4.93;82.10
27712;BME280;2377;51.734;8.950;2022-12-18T06:07:14;99000.25;;;-4.92;82.44
27712;BME280;2377;51.734;8.950;2022-12-18T06:09:41;99002.59;;;-4.89;82.33
27712;BME280;2377;51.734;8.950;2022-12-18T06:12:08;98993.22;;;-4.99;82.34
27712;BME280;2377;51.734;8.950;2022-12-18T06:14:37;98991.38;;;-4.96;81.92
27712;BME280;2377;51.734;8.950;2022-12-18T06:17:04;98987.97;;;-4.95;82.22
27712;BME280;2377;51.734;8.950;2022-12-18T06:19:32;98990.47;;;-4.95;81.78
27712;BME280;2377;51.734;8.950;2022-12-18T06:21:59;99000.78;;;-5.01;82.03
27712;BME280;2377;51.734;8.950;2022-12-18T06:24:26;99005.59;;;-4.98;81.57
27712;BME280;2377;51.734;8.950;2022-12-18T06:26:53;99001.66;;;-5.02;81.85
27712;BME280;2377;51.734;8.950;2022-12-18T06:29:20;99006.72;;;-5.03;82.08
27712;BME280;2377;51.734;8.950;2022-12-18T06:34:17;99000.41;;;-5.09;81.96
27712;BME280;2377;51.734;8.950;2022-12-18T06:36:44;98998.63;;;-5.07;82.00
27712;BME280;2377;51.734;8.950;2022-12-18T06:39:12;99001.03;;;-5.05;82.00
27712;BME280;2377;51.734;8.950;2022-12-18T06:41:39;99006.72;;;-5.03;82.16
27712;BME280;2377;51.734;8.950;2022-12-18T06:44:06;99009.22;;;-5.03;82.54
27712;BME280;2377;51.734;8.950;2022-12-18T06:46:33;99010.91;;;-5.04;82.34
27712;BME280;2377;51.734;8.950;2022-12-18T06:49:00;99014.06;;;-5.00;81.96
27712;BME280;2377;51.734;8.950;2022-12-18T06:51:29;99017.41;;;-5.01;82.18
27712;BME280;2377;51.734;8.950;2022-12-18T06:53:56;99023.91;;;-4.99;81.84
27712;BME280;2377;51.734;8.950;2022-12-18T06:56:24;99020.75;;;-5.01;82.13
27712;BME280;2377;51.734;8.950;2022-12-18T06:58:51;99029.97;;;-5.03;81.71
27712;BME280;2377;51.734;8.950;2022-12-18T07:01:18;99034.31;;;-5.06;81.81
27712;BME280;2377;51.734;8.950;2022-12-18T07:03:46;99035.09;;;-5.06;81.57
27712;BME280;2377;51.734;8.950;2022-12-18T07:06:15;99043.50;;;-5.07;81.33
27712;BME280;2377;51.734;8.950;2022-12-18T07:08:45;99039.38;;;-5.08;81.31
27712;BME280;2377;51.734;8.950;2022-12-18T07:11:13;99040.19;;;-5.07;81.88
27712;BME280;2377;51.734;8.950;2022-12-18T07:13:40;99038.44;;;-5.05;81.65
27712;BME280;2377;51.734;8.950;2022-12-18T07:16:09;99040.19;;;-5.07;81.60
27712;BME280;2377;51.734;8.950;2022-12-18T07:18:37;99040.19;;;-5.07;81.32
27712;BME280;2377;51.734;8.950;2022-12-18T07:21:05;99038.50;;;-5.07;81.43
27712;BME280;2377;51.734;8.950;2022-12-18T07:23:33;99041.88;;;-5.08;81.49
27712;BME280;2377;51.734;8.950;2022-12-18T07:26:06;99040.28;;;-5.09;81.50
27712;BME280;2377;51.734;8.950;2022-12-18T07:28:35;99049.19;;;-5.05;81.80
27712;BME280;2377;51.734;8.950;2022-12-18T07:31:04;99036.63;;;-5.03;82.56
27712;BME280;2377;51.734;8.950;2022-12-18T07:33:33;99032.13;;;-4.97;81.92
27712;BME280;2377;51.734;8.950;2022-12-18T07:36:01;99036.06;;;-4.93;82.60
27712;BME280;2377;51.734;8.950;2022-12-18T07:38:29;99030.75;;;-4.86;82.75
27712;BME280;2377;51.734;8.950;2022-12-18T07:41:01;99027.34;;;-4.85;82.34
27712;BME280;2377;51.734;8.950;2022-12-18T07:43:30;99024.69;;;-4.82;82.59
27712;BME280;2377;51.734;8.950;2022-12-18T07:45:57;99018.66;;;-4.78;82.13
27712;BME280;2377;51.734;8.950;2022-12-18T07:48:25;99026.13;;;-4.78;82.65
27712;BME280;2377;51.734;8.950;2022-12-18T07:50:52;99021.06;;;-4.77;82.36
27712;BME280;2377;51.734;8.950;2022-12-18T07:53:19;99038.41;;;-4.75;81.69
27712;BME280;2377;51.734;8.950;2022-12-18T07:55:47;99045.03;;;-4.74;81.66
27712;BME280;2377;51.734;8.950;2022-12-18T07:58:14;99040.91;;;-4.75;81.47
27712;BME280;2377;51.734;8.950;2022-12-18T08:00:42;99046.81;;;-4.76;81.42
27712;BME280;2377;51.734;8.950;2022-12-18T08:03:15;99036.91;;;-4.78;80.81
27712;BME280;2377;51.734;8.950;2022-12-18T08:05:42;99049.47;;;-4.79;81.89
27712;BME280;2377;51.734;8.950;2022-12-18T08:08:09;99036.84;;;-4.76;81.57
27712;BME280;2377;51.734;8.950;2022-12-18T08:10:37;99042.28;;;-4.70;81.43
27712;BME280;2377;51.734;8.950;2022-12-18T08:13:05;99042.03;;;-4.65;82.09
27712;BME280;2377;51.734;8.950;2022-12-18T08:15:32;99035.16;;;-4.61;81.52
27712;BME280;2377;51.734;8.950;2022-12-18T08:18:01;99039.34;;;-4.62;81.61
27712;BME280;2377;51.734;8.950;2022-12-18T08:20:28;99043.47;;;-4.61;81.29
27712;BME280;2377;51.734;8.950;2022-12-18T08:22:55;99037.41;;;-4.57;81.76
27712;BME280;2377;51.734;8.950;2022-12-18T08:25:23;99044.47;;;-4.49;81.31
27712;BME280;2377;51.734;8.950;2022-12-18T08:27:51;99037.53;;;-4.44;81.34
27712;BME280;2377;51.734;8.950;2022-12-18T08:30:18;99024.81;;;-4.39;81.89
27712;BME280;2377;51.734;8.950;2022-12-18T08:32:45;99024.44;;;-4.33;81.59
27712;BME280;2377;51.734;8.950;2022-12-18T08:35:14;99023.38;;;-4.29;81.28
27712;BME280;2377;51.734;8.950;2022-12-18T08:37:41;99025.63;;;-4.25;81.59
27712;BME280;2377;51.734;8.950;2022-12-18T08:40:10;99017.94;;;-4.21;81.31
27712;BME280;2377;51.734;8.950;2022-12-18T08:42:38;99016.25;;;-4.21;81.29
27712;BME280;2377;51.734;8.950;2022-12-18T08:45:23;99016.97;;;-4.19;80.94
27712;BME280;2377;51.734;8.950;2022-12-18T08:47:50;99006.81;;;-4.16;80.91
27712;BME280;2377;51.734;8.950;2022-12-18T08:50:19;98995.06;;;-4.14;80.52
27712;BME280;2377;51.734;8.950;2022-12-18T08:52:46;99008.06;;;-4.09;80.89
27712;BME280;2377;51.734;8.950;2022-12-18T08:55:14;99007.88;;;-4.06;79.91
27712;BME280;2377;51.734;8.950;2022-12-18T08:57:41;99007.69;;;-4.03;79.96
27712;BME280;2377;51.734;8.950;2022-12-18T09:00:10;99003.69;;;-4.05;80.06
27712;BME280;2377;51.734;8.950;2022-12-18T09:02:38;99001.38;;;-3.94;80.06
27712;BME280;2377;51.734;8.950;2022-12-18T09:05:06;98996.63;;;-3.84;79.99
27712;BME280;2377;51.734;8.950;2022-12-18T09:07:36;99006.16;;;-3.76;79.86
27712;BME280;2377;51.734;8.950;2022-12-18T09:10:04;99006.44;;;-3.67;79.84
27712;BME280;2377;51.734;8.950;2022-12-18T09:12:32;99000.31;;;-3.63;79.46
27712;BME280;2377;51.734;8.950;2022-12-18T09:14:59;99004.25;;;-3.58;79.96
27712;BME280;2377;51.734;8.950;2022-12-18T09:17:26;99014.59;;;-3.50;79.29
27712;BME280;2377;51.734;8.950;2022-12-18T09:19:54;99004.59;;;-3.50;79.17
27712;BME280;2377;51.734;8.950;2022-12-18T09:22:21;99007.44;;;-3.42;79.21
27712;BME280;2377;51.734;8.950;2022-12-18T09:24:50;99003.94;;;-3.40;79.40
27712;BME280;2377;51.734;8.950;2022-12-18T09:27:17;98998.06;;;-3.38;79.48
27712;BME280;2377;51.734;8.950;2022-12-18T09:29:44;99001.88;;;-3.33;78.85
27712;BME280;2377;51.734;8.950;2022-12-18T09:32:12;99002.78;;;-3.34;78.92
27712;BME280;2377;51.734;8.950;2022-12-18T09:34:39;98998.75;;;-3.36;78.19
27712;BME280;2377;51.734;8.950;2022-12-18T09:37:06;99000.06;;;-3.31;78.75
27712;BME280;2377;51.734;8.950;2022-12-18T09:39:33;99000.16;;;-3.32;78.57
27712;BME280;2377;51.734;8.950;2022-12-18T09:42:02;99009.28;;;-3.31;78.28
27712;BME280;2377;51.734;8.950;2022-12-18T09:44:33;99002.56;;;-3.31;78.14
27712;BME280;2377;51.734;8.950;2022-12-18T09:47:09;99005.06;;;-3.31;78.05
27712;BME280;2377;51.734;8.950;2022-12-18T09:49:44;99001.25;;;-3.36;77.96
27712;BME280;2377;51.734;8.950;2022-12-18T09:52:19;98988.16;;;-3.40;78.11
27712;BME280;2377;51.734;8.950;2022-12-18T09:54:53;99003.34;;;-3.43;77.85
27712;BME280;2377;51.734;8.950;2022-12-18T09:57:24;99005.91;;;-3.45;77.84
27712;BME280;2377;51.734;8.950;2022-12-18T09:59:57;99000.50;;;-3.51;77.65
27712;BME280;2377;51.734;8.950;2022-12-18T10:02:30;99001.56;;;-3.55;77.67
27712;BME280;2377;51.734;8.950;2022-12-18T10:05:05;99010.28;;;-3.48;77.93
27712;BME280;2377;51.734;8.950;2022-12-18T10:07:49;98995.56;;;-3.38;78.35
27712;BME280;2377;51.734;8.950;2022-12-18T10:10:33;98993.38;;;-3.30;78.47
27712;BME280;2377;51.734;8.950;2022-12-18T10:13:17;98996.91;;;-3.20;77.58
27712;BME280;2377;51.734;8.950;2022-12-18T10:16:00;98987.88;;;-2.95;77.88
27712;BME280;2377;51.734;8.950;2022-12-18T10:18:54;98993.22;;;-2.62;77.39
27712;BME280;2377;51.734;8.950;2022-12-18T10:21:31;98999.63;;;-2.19;77.25
27712;BME280;2377;51.734;8.950;2022-12-18T10:24:16;98987.78;;;-1.92;75.33
27712;BME280;2377;51.734;8.950;2022-12-18T10:26:55;98992.94;;;-1.69;74.46
27712;BME280;2377;51.734;8.950;2022-12-18T10:29:29;98999.09;;;-1.49;73.44
27712;BME280;2377;51.734;8.950;2022-12-18T10:31:56;98988.94;;;-1.23;73.42
27712;BME280;2377;51.734;8.950;2022-12-18T10:34:24;98983.28;;;-1.14;71.83
27712;BME280;2377;51.734;8.950;2022-12-18T10:36:51;98963.63;;;-0.96;70.94
27712;BME280;2377;51.734;8.950;2022-12-18T10:39:21;98964.59;;;-0.75;70.26
27712;BME280;2377;51.734;8.950;2022-12-18T10:41:49;98951.13;;;-0.74;69.01
27712;BME280;2377;51.734;8.950;2022-12-18T10:44:19;98942.47;;;-0.70;69.51
27712;BME280;2377;51.734;8.950;2022-12-18T10:46:54;98936.97;;;-0.64;70.07
27712;BME280;2377;51.734;8.950;2022-12-18T10:49:26;98934.03;;;-0.57;69.44
27712;BME280;2377;51.734;8.950;2022-12-18T10:52:14;98927.06;;;-0.54;69.19
27712;BME280;2377;51.734;8.950;2022-12-18T10:54:49;98927.97;;;-0.66;68.71
27712;BME280;2377;51.734;8.950;2022-12-18T10:57:31;98926.00;;;-0.74;69.62
27712;BME280;2377;51.734;8.950;2022-12-18T11:00:18;98920.66;;;-0.80;70.12
27712;BME280;2377;51.734;8.950;2022-12-18T11:02:48;98909.09;;;-1.05;70.41
27712;BME280;2377;51.734;8.950;2022-12-18T11:05:28;98901.97;;;-1.23;71.27
27712;BME280;2377;51.734;8.950;2022-12-18T11:07:58;98912.88;;;-1.35;71.22
27712;BME280;2377;51.734;8.950;2022-12-18T11:10:32;98926.06;;;-1.44;71.54
27712;BME280;2377;51.734;8.950;2022-12-18T11:13:15;98932.63;;;-1.55;71.82
27712;BME280;2377;51.734;8.950;2022-12-18T11:15:45;98935.34;;;-1.58;72.36
27712;BME280;2377;51.734;8.950;2022-12-18T11:18:23;98914.94;;;-1.64;71.78
27712;BME280;2377;51.734;8.950;2022-12-18T11:20:55;98912.31;;;-1.63;72.15
27712;BME280;2377;51.734;8.950;2022-12-18T11:23:24;98899.06;;;-1.65;72.40
27712;BME280;2377;51.734;8.950;2022-12-18T11:25:56;98895.00;;;-1.66;72.95
27712;BME280;2377;51.734;8.950;2022-12-18T11:28:35;98882.78;;;-1.71;72.46
27712;BME280;2377;51.734;8.950;2022-12-18T11:31:22;98879.66;;;-1.74;72.87
27712;BME280;2377;51.734;8.950;2022-12-18T11:34:02;98865.09;;;-1.80;72.68
27712;BME280;2377;51.734;8.950;2022-12-18T11:36:36;98864.63;;;-1.74;73.62
27712;BME280;2377;51.734;8.950;2022-12-18T11:39:15;98846.91;;;-1.71;73.23
27712;BME280;2377;51.734;8.950;2022-12-18T11:41:53;98840.78;;;-1.67;73.25
27712;BME280;2377;51.734;8.950;2022-12-18T11:44:45;98855.44;;;-1.74;72.81
27712;BME280;2377;51.734;8.950;2022-12-18T11:47:28;98844.16;;;-1.68;72.42
27712;BME280;2377;51.734;8.950;2022-12-18T11:50:02;98833.69;;;-1.73;72.36
27712;BME280;2377;51.734;8.950;2022-12-18T11:52:36;98828.25;;;-1.67;72.96
27712;BME280;2377;51.734;8.950;2022-12-18T11:55:12;98824.72;;;-1.64;72.69
27712;BME280;2377;51.734;8.950;2022-12-18T11:57:49;98833.44;;;-1.70;72.64
27712;BME280;2377;51.734;8.950;2022-12-18T12:00:22;98828.72;;;-1.62;72.48
27712;BME280;2377;51.734;8.950;2022-12-18T12:03:17;98825.28;;;-1.61;72.48
27712;BME280;2377;51.734;8.950;2022-12-18T12:06:03;98827.09;;;-1.63;72.07
27712;BME280;2377;51.734;8.950;2022-12-18T12:08:51;98827.69;;;-1.59;72.17
27712;BME280;2377;51.734;8.950;2022-12-18T12:11:32;98815.94;;;-1.59;72.93
27712;BME280;2377;51.734;8.950;2022-12-18T12:14:30;98818.81;;;-1.52;72.62
27712;BME280;2377;51.734;8.950;2022-12-18T12:17:09;98812.44;;;-1.56;72.15
27712;BME280;2377;51.734;8.950;2022-12-18T12:19:50;98812.78;;;-1.50;72.66
27712;BME280;2377;51.734;8.950;2022-12-18T12:22:32;98809.34;;;-1.49;72.20
27712;BME280;2377;51.734;8.950;2022-12-18T12:25:30;98803.00;;;-1.53;71.63
27712;BME280;2377;51.734;8.950;2022-12-18T12:28:15;98795.56;;;-1.54;71.93
27712;BME280;2377;51.734;8.950;2022-12-18T12:30:56;98800.47;;;-1.53;72.04
27712;BME280;2377;51.734;8.950;2022-12-18T12:33:38;98791.81;;;-1.49;72.03
27712;BME280;2377;51.734;8.950;2022-12-18T12:36:17;98791.94;;;-1.50;71.94
27712;BME280;2377;51.734;8.950;2022-12-18T12:38:54;98788.75;;;-1.52;71.76
27712;BME280;2377;51.734;8.950;2022-12-18T12:41:27;98798.44;;;-1.47;71.82
27712;BME280;2377;51.734;8.950;2022-12-18T12:44:19;98793.88;;;-1.42;71.43
27712;BME280;2377;51.734;8.950;2022-12-18T12:46:49;98793.66;;;-1.39;71.30
27712;BME280;2377;51.734;8.950;2022-12-18T12:49:26;98806.88;;;-1.37;71.08
27712;BME280;2377;51.734;8.950;2022-12-18T12:52:03;98806.66;;;-1.34;71.58
27712;BME280;2377;51.734;8.950;2022-12-18T12:54:34;98798.22;;;-1.33;71.34
27712;BME280;2377;51.734;8.950;2022-12-18T12:57:10;98800.75;;;-1.33;71.00
27712;BME280;2377;51.734;8.950;2022-12-18T12:59:51;98803.25;;;-1.33;70.56
27712;BME280;2377;51.734;8.950;2022-12-18T13:02:30;98804.28;;;-1.36;70.81
27712;BME280;2377;51.734;8.950;2022-12-18T13:05:11;98792.63;;;-1.37;70.77
27712;BME280;2377;51.734;8.950;2022-12-18T13:07:51;98791.59;;;-1.34;70.50
27712;BME280;2377;51.734;8.950;2022-12-18T13:10:31;98784.09;;;-1.34;70.43
27712;BME280;2377;51.734;8.950;2022-12-18T13:13:02;98783.75;;;-1.30;70.66
27712;BME280;2377;51.734;8.950;2022-12-18T13:15:36;98792.44;;;-1.34;69.91
27712;BME280;2377;51.734;8.950;2022-12-18T13:21:10;98782.97;;;-1.30;69.84
27712;BME280;2377;51.734;8.950;2022-12-18T13:23:41;98778.28;;;-1.23;70.40
27712;BME280;2377;51.734;8.950;2022-12-18T13:26:36;98766.88;;;-1.28;69.17
27712;BME280;2377;51.734;8.950;2022-12-18T13:29:04;98775.09;;;-1.25;69.31
27712;BME280;2377;51.734;8.950;2022-12-18T13:32:18;98776.13;;;-1.28;69.22
27712;BME280;2377;51.734;8.950;2022-12-18T13:34:46;98771.69;;;-1.24;70.29
27712;BME280;2377;51.734;8.950;2022-12-18T13:37:43;98770.19;;;-1.27;69.83
27712;BME280;2377;51.734;8.950;2022-12-18T13:40:54;98761.88;;;-1.28;69.91
27712;BME280;2377;51.734;8.950;2022-12-18T13:43:41;98753.09;;;-1.33;70.27
27712;BME280;2377;51.734;8.950;2022-12-18T13:46:27;98744.88;;;-1.35;70.54